sensor_id;sensor_type;location;lat;lon;timestamp;P1;durP1;ratioP1;P2;durP2;ratioP2
52210;SDS011;38179;52.756;6.906;2022-09-12T00:02:20;29.30;;;26.88;;
52210;SDS011;38179;52.756;6.906;2022-09-12T00:04:46;30.33;;;27.83;;
52210;SDS011;38179;52.756;6.906;2022-09-12T00:07:12;32.05;;;29.35;;
52210;SDS011;38179;52.756;6.906;2022-09-12T00:09:38;30.95;;;28.38;;
52210;SDS011;38179;52.756;6.906;2022-09-12T00:12:04;31.45;;;28.85;;
52210;SDS011;38179;52.756;6.906;2022-09-12T00:14:30;31.80;;;29.20;;
52210;SDS011;38179;52.756;6.906;2022-09-12T00:16:57;32.67;;;30.00;;
52210;SDS011;38179;52.756;6.906;2022-09-12T00:19:24;32.13;;;29.40;;
52210;SDS011;38179;52.756;6.906;2022-09-12T00:21:51;32.15;;;29.45;;
52210;SDS011;38179;52.756;6.906;2022-09-12T00:24:17;32.25;;;29.58;;
52210;SDS011;38179;52.756;6.906;2022-09-12T00:26:43;32.03;;;29.42;;
52210;SDS011;38179;52.756;6.906;2022-09-12T00:29:18;32.30;;;29.50;;
52210;SDS011;38179;52.756;6.906;2022-09-12T00:31:46;31.50;;;29.00;;
52210;SDS011;38179;52.756;6.906;2022-09-12T00:34:12;32.03;;;29.27;;
52210;SDS011;38179;52.756;6.906;2022-09-12T00:36:38;31.48;;;28.70;;
52210;SDS011;38179;52.756;6.906;2022-09-12T00:39:05;31.75;;;29.02;;
52210;SDS011;38179;52.756;6.906;2022-09-12T00:41:32;31.88;;;29.27;;
52210;SDS011;38179;52.756;6.906;2022-09-12T00:44:40;32.63;;;29.88;;
52210;SDS011;38179;52.756;6.906;2022-09-12T00:49:41;32.42;;;29.52;;
52210;SDS011;38179;52.756;6.906;2022-09-12T00:52:12;32.95;;;29.85;;
52210;SDS011;38179;52.756;6.906;2022-09-12T00:57:17;35.00;;;32.00;;
52210;SDS011;38179;52.756;6.906;2022-09-12T01:00:21;33.72;;;30.88;;
52210;SDS011;38179;52.756;6.906;2022-09-12T01:02:45;34.53;;;31.48;;
52210;SDS011;38179;52.756;6.906;2022-09-12T01:05:38;35.08;;;31.88;;
52210;SDS011;38179;52.756;6.906;2022-09-12T01:08:09;36.05;;;32.70;;
52210;SDS011;38179;52.756;6.906;2022-09-12T01:10:36;36.17;;;32.97;;
52210;SDS011;38179;52.756;6.906;2022-09-12T01:13:05;34.25;;;31.20;;
52210;SDS011;38179;52.756;6.906;2022-09-12T01:15:32;37.03;;;33.55;;
52210;SDS011;38179;52.756;6.906;2022-09-12T01:18:20;33.08;;;30.27;;
52210;SDS011;38179;52.756;6.906;2022-09-12T01:23:47;34.88;;;31.80;;
52210;SDS011;38179;52.756;6.906;2022-09-12T01:46:05;30.08;;;27.27;;
52210;SDS011;38179;52.756;6.906;2022-09-12T01:48:37;28.52;;;26.15;;
52210;SDS011;38179;52.756;6.906;2022-09-12T01:51:15;30.45;;;27.95;;
52210;SDS011;38179;52.756;6.906;2022-09-12T01:53:54;29.63;;;27.17;;
52210;SDS011;38179;52.756;6.906;2022-09-12T01:56:32;30.15;;;27.73;;
52210;SDS011;38179;52.756;6.906;2022-09-12T01:59:11;31.92;;;29.23;;
52210;SDS011;38179;52.756;6.906;2022-09-12T02:01:46;33.15;;;30.13;;
52210;SDS011;38179;52.756;6.906;2022-09-12T02:04:35;32.83;;;29.88;;
52210;SDS011;38179;52.756;6.906;2022-09-12T02:07:17;33.95;;;31.05;;
52210;SDS011;38179;52.756;6.906;2022-09-12T02:10:25;31.65;;;29.05;;
52210;SDS011;38179;52.756;6.906;2022-09-12T02:12:47;31.83;;;29.13;;
52210;SDS011;38179;52.756;6.906;2022-09-12T02:15:19;33.72;;;30.75;;
52210;SDS011;38179;52.756;6.906;2022-09-12T02:17:49;34.08;;;30.88;;
52210;SDS011;38179;52.756;6.906;2022-09-12T02:20:17;36.90;;;33.57;;
52210;SDS011;38179;52.756;6.906;2022-09-12T02:22:49;34.70;;;31.70;;
52210;SDS011;38179;52.756;6.906;2022-09-12T02:25:17;33.55;;;30.65;;
52210;SDS011;38179;52.756;6.906;2022-09-12T02:28:05;34.88;;;31.73;;
52210;SDS011;38179;52.756;6.906;2022-09-12T02:30:39;33.95;;;31.05;;
52210;SDS011;38179;52.756;6.906;2022-09-12T02:33:29;34.22;;;31.33;;
52210;SDS011;38179;52.756;6.906;2022-09-12T02:36:05;33.40;;;30.50;;
52210;SDS011;38179;52.756;6.906;2022-09-12T02:38:46;32.97;;;29.90;;
52210;SDS011;38179;52.756;6.906;2022-09-12T02:41:13;32.25;;;29.45;;
52210;SDS011;38179;52.756;6.906;2022-09-12T02:43:44;32.75;;;29.85;;
52210;SDS011;38179;52.756;6.906;2022-09-12T02:46:27;29.92;;;27.45;;
52210;SDS011;38179;52.756;6.906;2022-09-12T02:49:00;25.17;;;23.20;;
52210;SDS011;38179;52.756;6.906;2022-09-12T02:51:27;23.88;;;22.13;;
52210;SDS011;38179;52.756;6.906;2022-09-12T02:53:53;24.10;;;22.30;;
52210;SDS011;38179;52.756;6.906;2022-09-12T02:56:23;23.75;;;21.98;;
52210;SDS011;38179;52.756;6.906;2022-09-12T02:58:52;24.02;;;22.23;;
52210;SDS011;38179;52.756;6.906;2022-09-12T03:07:01;24.92;;;23.02;;
52210;SDS011;38179;52.756;6.906;2022-09-12T03:15:27;32.13;;;29.33;;
52210;SDS011;38179;52.756;6.906;2022-09-12T03:18:20;32.15;;;29.40;;
52210;SDS011;38179;52.756;6.906;2022-09-12T03:21:02;29.83;;;27.33;;
52210;SDS011;38179;52.756;6.906;2022-09-12T03:26:44;30.65;;;28.13;;
52210;SDS011;38179;52.756;6.906;2022-09-12T03:29:14;30.40;;;27.90;;
52210;SDS011;38179;52.756;6.906;2022-09-12T03:31:52;30.50;;;28.00;;
52210;SDS011;38179;52.756;6.906;2022-09-12T03:34:20;28.80;;;26.45;;
52210;SDS011;38179;52.756;6.906;2022-09-12T03:36:48;30.65;;;28.15;;
52210;SDS011;38179;52.756;6.906;2022-09-12T03:39:15;30.80;;;28.15;;
52210;SDS011;38179;52.756;6.906;2022-09-12T03:41:41;33.17;;;30.30;;
52210;SDS011;38179;52.756;6.906;2022-09-12T03:44:07;34.70;;;31.42;;
52210;SDS011;38179;52.756;6.906;2022-09-12T03:46:33;35.13;;;32.03;;
52210;SDS011;38179;52.756;6.906;2022-09-12T03:48:59;35.55;;;32.38;;
52210;SDS011;38179;52.756;6.906;2022-09-12T03:51:25;35.45;;;32.15;;
52210;SDS011;38179;52.756;6.906;2022-09-12T03:53:51;34.75;;;31.55;;
52210;SDS011;38179;52.756;6.906;2022-09-12T03:56:18;35.45;;;32.15;;
52210;SDS011;38179;52.756;6.906;2022-09-12T03:58:45;34.25;;;30.92;;
52210;SDS011;38179;52.756;6.906;2022-09-12T04:01:15;34.13;;;31.10;;
52210;SDS011;38179;52.756;6.906;2022-09-12T04:03:43;36.83;;;33.55;;
52210;SDS011;38179;52.756;6.906;2022-09-12T04:06:11;35.10;;;31.90;;
52210;SDS011;38179;52.756;6.906;2022-09-12T04:08:39;36.60;;;33.30;;
52210;SDS011;38179;52.756;6.906;2022-09-12T04:11:08;37.85;;;34.35;;
52210;SDS011;38179;52.756;6.906;2022-09-12T04:13:39;37.97;;;34.47;;
52210;SDS011;38179;52.756;6.906;2022-09-12T04:16:06;37.67;;;34.08;;
52210;SDS011;38179;52.756;6.906;2022-09-12T04:18:33;38.35;;;34.75;;
52210;SDS011;38179;52.756;6.906;2022-09-12T04:21:03;37.20;;;33.83;;
52210;SDS011;38179;52.756;6.906;2022-09-12T04:23:35;36.60;;;33.20;;
52210;SDS011;38179;52.756;6.906;2022-09-12T04:26:02;36.55;;;33.22;;
52210;SDS011;38179;52.756;6.906;2022-09-12T04:28:31;38.70;;;35.17;;
52210;SDS011;38179;52.756;6.906;2022-09-12T04:31:04;36.97;;;33.60;;
52210;SDS011;38179;52.756;6.906;2022-09-12T04:33:33;38.40;;;34.72;;
52210;SDS011;38179;52.756;6.906;2022-09-12T04:36:07;36.95;;;33.50;;
52210;SDS011;38179;52.756;6.906;2022-09-12T04:38:35;36.55;;;32.97;;
52210;SDS011;38179;52.756;6.906;2022-09-12T04:43:41;38.08;;;34.47;;
52210;SDS011;38179;52.756;6.906;2022-09-12T04:46:09;39.10;;;35.30;;
52210;SDS011;38179;52.756;6.906;2022-09-12T04:48:36;40.92;;;36.92;;
52210;SDS011;38179;52.756;6.906;2022-09-12T04:51:11;40.35;;;36.15;;
52210;SDS011;38179;52.756;6.906;2022-09-12T04:53:38;42.67;;;38.28;;
52210;SDS011;38179;52.756;6.906;2022-09-12T04:56:05;42.53;;;38.42;;
52210;SDS011;38179;52.756;6.906;2022-09-12T04:58:33;40.58;;;36.53;;
52210;SDS011;38179;52.756;6.906;2022-09-12T05:01:05;41.67;;;37.60;;
52210;SDS011;38179;52.756;6.906;2022-09-12T05:03:36;42.33;;;38.13;;
52210;SDS011;38179;52.756;6.906;2022-09-12T05:06:08;43.25;;;38.75;;
52210;SDS011;38179;52.756;6.906;2022-09-12T05:08:38;43.40;;;38.72;;
52210;SDS011;38179;52.756;6.906;2022-09-12T05:11:05;41.08;;;37.10;;
52210;SDS011;38179;52.756;6.906;2022-09-12T05:13:37;42.80;;;38.50;;
52210;SDS011;38179;52.756;6.906;2022-09-12T05:16:04;41.97;;;37.78;;
52210;SDS011;38179;52.756;6.906;2022-09-12T05:18:31;42.00;;;37.60;;
52210;SDS011;38179;52.756;6.906;2022-09-12T05:20:59;43.22;;;39.03;;
52210;SDS011;38179;52.756;6.906;2022-09-12T05:23:25;42.75;;;38.33;;
52210;SDS011;38179;52.756;6.906;2022-09-12T05:25:53;43.55;;;39.10;;
52210;SDS011;38179;52.756;6.906;2022-09-12T05:28:20;43.60;;;39.17;;
52210;SDS011;38179;52.756;6.906;2022-09-12T05:30:47;44.03;;;39.53;;
52210;SDS011;38179;52.756;6.906;2022-09-12T05:33:13;44.22;;;39.72;;
52210;SDS011;38179;52.756;6.906;2022-09-12T05:35:39;44.38;;;39.58;;
52210;SDS011;38179;52.756;6.906;2022-09-12T05:38:06;44.55;;;40.08;;
52210;SDS011;38179;52.756;6.906;2022-09-12T05:40:32;44.50;;;39.97;;
52210;SDS011;38179;52.756;6.906;2022-09-12T05:42:58;44.30;;;39.55;;
52210;SDS011;38179;52.756;6.906;2022-09-12T05:45:25;43.78;;;39.33;;
52210;SDS011;38179;52.756;6.906;2022-09-12T05:47:51;45.75;;;40.85;;
52210;SDS011;38179;52.756;6.906;2022-09-12T05:50:18;45.53;;;40.53;;
52210;SDS011;38179;52.756;6.906;2022-09-12T05:52:45;45.30;;;40.50;;
52210;SDS011;38179;52.756;6.906;2022-09-12T05:55:10;45.10;;;40.35;;
52210;SDS011;38179;52.756;6.906;2022-09-12T05:57:36;44.85;;;38.78;;
52210;SDS011;38179;52.756;6.906;2022-09-12T06:00:03;44.53;;;39.85;;
52210;SDS011;38179;52.756;6.906;2022-09-12T06:02:31;44.28;;;39.58;;
52210;SDS011;38179;52.756;6.906;2022-09-12T06:04:57;43.65;;;39.17;;
52210;SDS011;38179;52.756;6.906;2022-09-12T06:07:23;43.70;;;39.00;;
52210;SDS011;38179;52.756;6.906;2022-09-12T06:09:49;44.22;;;39.63;;
52210;SDS011;38179;52.756;6.906;2022-09-12T06:12:15;45.55;;;40.72;;
52210;SDS011;38179;52.756;6.906;2022-09-12T06:14:40;45.15;;;40.53;;
52210;SDS011;38179;52.756;6.906;2022-09-12T06:17:06;46.25;;;41.25;;
52210;SDS011;38179;52.756;6.906;2022-09-12T06:19:32;44.17;;;39.67;;
52210;SDS011;38179;52.756;6.906;2022-09-12T06:21:58;45.78;;;40.88;;
52210;SDS011;38179;52.756;6.906;2022-09-12T06:24:24;47.08;;;42.00;;
52210;SDS011;38179;52.756;6.906;2022-09-12T06:26:50;51.05;;;44.40;;
52210;SDS011;38179;52.756;6.906;2022-09-12T06:29:16;51.30;;;45.80;;
52210;SDS011;38179;52.756;6.906;2022-09-12T06:31:43;50.35;;;44.85;;
52210;SDS011;38179;52.756;6.906;2022-09-12T06:34:11;46.92;;;41.30;;
52210;SDS011;38179;52.756;6.906;2022-09-12T06:36:44;47.75;;;42.20;;
52210;SDS011;38179;52.756;6.906;2022-09-12T06:39:12;47.47;;;42.45;;
52210;SDS011;38179;52.756;6.906;2022-09-12T06:41:40;46.92;;;41.75;;
52210;SDS011;38179;52.756;6.906;2022-09-12T06:44:06;47.70;;;42.67;;
52210;SDS011;38179;52.756;6.906;2022-09-12T06:46:35;49.17;;;43.97;;
52210;SDS011;38179;52.756;6.906;2022-09-12T06:49:01;46.88;;;41.20;;
52210;SDS011;38179;52.756;6.906;2022-09-12T06:51:28;46.78;;;41.65;;
52210;SDS011;38179;52.756;6.906;2022-09-12T06:53:54;49.75;;;43.13;;
52210;SDS011;38179;52.756;6.906;2022-09-12T06:56:22;46.95;;;41.92;;
52210;SDS011;38179;52.756;6.906;2022-09-12T07:01:19;45.92;;;40.67;;
52210;SDS011;38179;52.756;6.906;2022-09-12T07:03:54;45.20;;;40.30;;
52210;SDS011;38179;52.756;6.906;2022-09-12T07:06:22;45.78;;;40.75;;
52210;SDS011;38179;52.756;6.906;2022-09-12T07:11:17;49.17;;;40.78;;
52210;SDS011;38179;52.756;6.906;2022-09-12T07:13:46;45.70;;;40.90;;
52210;SDS011;38179;52.756;6.906;2022-09-12T07:16:13;48.33;;;41.58;;
52210;SDS011;38179;52.756;6.906;2022-09-12T07:18:41;47.13;;;41.90;;
52210;SDS011;38179;52.756;6.906;2022-09-12T07:21:11;45.90;;;39.80;;
52210;SDS011;38179;52.756;6.906;2022-09-12T07:23:38;44.63;;;39.85;;
52210;SDS011;38179;52.756;6.906;2022-09-12T07:26:06;45.90;;;41.03;;
52210;SDS011;38179;52.756;6.906;2022-09-12T07:28:34;46.03;;;41.08;;
52210;SDS011;38179;52.756;6.906;2022-09-12T07:31:04;46.03;;;41.25;;
52210;SDS011;38179;52.756;6.906;2022-09-12T07:33:32;48.15;;;43.13;;
52210;SDS011;38179;52.756;6.906;2022-09-12T07:36:01;47.15;;;41.92;;
52210;SDS011;38179;52.756;6.906;2022-09-12T07:38:28;44.35;;;39.67;;
52210;SDS011;38179;52.756;6.906;2022-09-12T07:40:55;46.70;;;39.30;;
52210;SDS011;38179;52.756;6.906;2022-09-12T07:43:21;42.60;;;38.28;;
52210;SDS011;38179;52.756;6.906;2022-09-12T07:45:47;39.05;;;35.22;;
52210;SDS011;38179;52.756;6.906;2022-09-12T07:48:18;40.20;;;36.00;;
52210;SDS011;38179;52.756;6.906;2022-09-12T07:50:44;40.20;;;36.20;;
52210;SDS011;38179;52.756;6.906;2022-09-12T07:53:10;38.63;;;34.83;;
52210;SDS011;38179;52.756;6.906;2022-09-12T07:55:36;38.97;;;34.88;;
52210;SDS011;38179;52.756;6.906;2022-09-12T07:58:02;40.58;;;36.38;;
52210;SDS011;38179;52.756;6.906;2022-09-12T08:00:28;38.65;;;34.92;;
52210;SDS011;38179;52.756;6.906;2022-09-12T08:03:00;39.42;;;35.45;;
52210;SDS011;38179;52.756;6.906;2022-09-12T08:05:31;41.28;;;37.22;;
52210;SDS011;38179;52.756;6.906;2022-09-12T08:07:57;39.00;;;34.90;;
52210;SDS011;38179;52.756;6.906;2022-09-12T08:10:23;36.17;;;32.63;;
52210;SDS011;38179;52.756;6.906;2022-09-12T08:12:49;37.95;;;34.13;;
52210;SDS011;38179;52.756;6.906;2022-09-12T08:15:15;37.67;;;33.97;;
52210;SDS011;38179;52.756;6.906;2022-09-12T08:17:41;37.70;;;34.20;;
52210;SDS011;38179;52.756;6.906;2022-09-12T08:20:07;36.35;;;32.70;;
52210;SDS011;38179;52.756;6.906;2022-09-12T08:22:33;36.80;;;33.28;;
52210;SDS011;38179;52.756;6.906;2022-09-12T08:24:59;38.38;;;34.58;;
52210;SDS011;38179;52.756;6.906;2022-09-12T08:27:25;36.97;;;33.22;;
52210;SDS011;38179;52.756;6.906;2022-09-12T08:29:51;37.88;;;34.17;;
52210;SDS011;38179;52.756;6.906;2022-09-12T08:32:17;37.42;;;33.70;;
52210;SDS011;38179;52.756;6.906;2022-09-12T08:34:43;39.47;;;35.67;;
52210;SDS011;38179;52.756;6.906;2022-09-12T08:37:09;38.40;;;34.70;;
52210;SDS011;38179;52.756;6.906;2022-09-12T08:39:35;39.38;;;35.28;;
52210;SDS011;38179;52.756;6.906;2022-09-12T08:42:01;39.88;;;35.55;;
52210;SDS011;38179;52.756;6.906;2022-09-12T08:49:58;40.17;;;36.25;;
52210;SDS011;38179;52.756;6.906;2022-09-12T08:55:32;39.63;;;35.63;;
52210;SDS011;38179;52.756;6.906;2022-09-12T08:58:13;40.25;;;36.10;;
52210;SDS011;38179;52.756;6.906;2022-09-12T09:05:44;41.03;;;36.80;;
52210;SDS011;38179;52.756;6.906;2022-09-12T09:16:31;42.40;;;38.10;;
52210;SDS011;38179;52.756;6.906;2022-09-12T09:19:14;41.15;;;36.88;;
52210;SDS011;38179;52.756;6.906;2022-09-12T09:21:56;41.55;;;37.35;;
52210;SDS011;38179;52.756;6.906;2022-09-12T09:24:33;43.15;;;38.45;;
52210;SDS011;38179;52.756;6.906;2022-09-12T09:29:52;46.17;;;39.88;;
52210;SDS011;38179;52.756;6.906;2022-09-12T09:32:27;46.33;;;41.25;;
52210;SDS011;38179;52.756;6.906;2022-09-12T09:35:01;45.88;;;41.08;;
52210;SDS011;38179;52.756;6.906;2022-09-12T09:37:44;46.05;;;41.03;;
52210;SDS011;38179;52.756;6.906;2022-09-12T09:43:06;48.58;;;43.03;;
52210;SDS011;38179;52.756;6.906;2022-09-12T09:45:53;45.25;;;40.30;;
52210;SDS011;38179;52.756;6.906;2022-09-12T09:48:22;51.30;;;43.80;;
52210;SDS011;38179;52.756;6.906;2022-09-12T09:50:58;56.97;;;44.72;;
52210;SDS011;38179;52.756;6.906;2022-09-12T09:55:52;54.97;;;47.15;;
52210;SDS011;38179;52.756;6.906;2022-09-12T09:58:31;49.70;;;43.40;;
52210;SDS011;38179;52.756;6.906;2022-09-12T10:00:59;52.08;;;43.95;;
52210;SDS011;38179;52.756;6.906;2022-09-12T10:03:30;50.67;;;43.40;;
52210;SDS011;38179;52.756;6.906;2022-09-12T10:06:07;52.58;;;44.17;;
52210;SDS011;38179;52.756;6.906;2022-09-12T10:09:06;49.97;;;42.30;;
52210;SDS011;38179;52.756;6.906;2022-09-12T10:11:39;49.42;;;41.88;;
52210;SDS011;38179;52.756;6.906;2022-09-12T10:14:21;50.95;;;42.92;;
52210;SDS011;38179;52.756;6.906;2022-09-12T10:16:56;47.47;;;42.13;;
52210;SDS011;38179;52.756;6.906;2022-09-12T10:19:41;46.20;;;40.80;;
52210;SDS011;38179;52.756;6.906;2022-09-12T10:22:12;48.25;;;40.95;;
52210;SDS011;38179;52.756;6.906;2022-09-12T10:24:42;49.67;;;40.83;;
52210;SDS011;38179;52.756;6.906;2022-09-12T10:27:20;46.95;;;41.90;;
52210;SDS011;38179;52.756;6.906;2022-09-12T10:29:52;49.35;;;39.78;;
52210;SDS011;38179;52.756;6.906;2022-09-12T10:32:38;44.63;;;39.92;;
52210;SDS011;38179;52.756;6.906;2022-09-12T10:35:07;47.40;;;41.13;;
52210;SDS011;38179;52.756;6.906;2022-09-12T10:37:53;43.65;;;38.88;;
52210;SDS011;38179;52.756;6.906;2022-09-12T10:40:33;46.38;;;41.45;;
52210;SDS011;38179;52.756;6.906;2022-09-12T10:43:15;45.95;;;41.08;;
52210;SDS011;38179;52.756;6.906;2022-09-12T10:45:42;44.03;;;39.17;;
52210;SDS011;38179;52.756;6.906;2022-09-12T10:48:27;45.42;;;40.42;;
52210;SDS011;38179;52.756;6.906;2022-09-12T10:50:58;42.10;;;37.28;;
52210;SDS011;38179;52.756;6.906;2022-09-12T10:53:30;41.05;;;36.78;;
52210;SDS011;38179;52.756;6.906;2022-09-12T10:56:17;42.20;;;37.58;;
52210;SDS011;38179;52.756;6.906;2022-09-12T11:06:48;40.35;;;36.13;;
52210;SDS011;38179;52.756;6.906;2022-09-12T11:12:04;39.35;;;35.35;;
52210;SDS011;38179;52.756;6.906;2022-09-12T11:14:55;39.65;;;35.65;;
52210;SDS011;38179;52.756;6.906;2022-09-12T11:17:45;39.25;;;35.35;;
52210;SDS011;38179;52.756;6.906;2022-09-12T11:32:12;39.97;;;35.80;;
52210;SDS011;38179;52.756;6.906;2022-09-12T11:42:56;38.72;;;35.03;;
52210;SDS011;38179;52.756;6.906;2022-09-12T11:45:40;38.00;;;34.22;;
52210;SDS011;38179;52.756;6.906;2022-09-12T11:48:43;39.83;;;35.88;;
52210;SDS011;38179;52.756;6.906;2022-09-12T11:51:16;34.67;;;31.38;;
52210;SDS011;38179;52.756;6.906;2022-09-12T11:53:45;33.00;;;30.00;;
52210;SDS011;38179;52.756;6.906;2022-09-12T11:56:21;31.88;;;28.98;;
52210;SDS011;38179;52.756;6.906;2022-09-12T11:58:53;32.65;;;29.67;;
52210;SDS011;38179;52.756;6.906;2022-09-12T12:01:26;34.20;;;31.10;;
52210;SDS011;38179;52.756;6.906;2022-09-12T12:03:57;33.53;;;30.52;;
52210;SDS011;38179;52.756;6.906;2022-09-12T12:06:31;28.52;;;26.17;;
52210;SDS011;38179;52.756;6.906;2022-09-12T12:09:02;27.48;;;25.17;;
52210;SDS011;38179;52.756;6.906;2022-09-12T12:11:33;27.75;;;25.27;;
52210;SDS011;38179;52.756;6.906;2022-09-12T12:14:45;28.42;;;26.08;;
52210;SDS011;38179;52.756;6.906;2022-09-12T12:16:55;30.05;;;27.45;;
52210;SDS011;38179;52.756;6.906;2022-09-12T12:19:31;31.17;;;28.30;;
52210;SDS011;38179;52.756;6.906;2022-09-12T12:22:13;30.08;;;27.45;;
52210;SDS011;38179;52.756;6.906;2022-09-12T12:25:02;30.67;;;27.88;;
52210;SDS011;38179;52.756;6.906;2022-09-12T12:33:01;32.28;;;29.35;;
52210;SDS011;38179;52.756;6.906;2022-09-12T12:38:04;31.40;;;28.60;;
52210;SDS011;38179;52.756;6.906;2022-09-12T12:40:52;31.75;;;28.75;;
52210;SDS011;38179;52.756;6.906;2022-09-12T12:43:28;32.03;;;29.00;;
52210;SDS011;38179;52.756;6.906;2022-09-12T12:46:06;30.25;;;27.45;;
52210;SDS011;38179;52.756;6.906;2022-09-12T12:48:35;30.13;;;27.52;;
52210;SDS011;38179;52.756;6.906;2022-09-12T12:51:32;30.50;;;27.70;;
52210;SDS011;38179;52.756;6.906;2022-09-12T12:53:57;29.45;;;26.92;;
52210;SDS011;38179;52.756;6.906;2022-09-12T12:56:26;29.48;;;26.83;;
52210;SDS011;38179;52.756;6.906;2022-09-12T12:59:03;27.92;;;25.52;;
52210;SDS011;38179;52.756;6.906;2022-09-12T13:01:46;27.95;;;25.48;;
52210;SDS011;38179;52.756;6.906;2022-09-12T13:04:16;27.85;;;25.30;;
52210;SDS011;38179;52.756;6.906;2022-09-12T13:06:44;27.42;;;25.23;;
52210;SDS011;38179;52.756;6.906;2022-09-12T13:09:25;26.50;;;24.05;;
52210;SDS011;38179;52.756;6.906;2022-09-12T13:12:05;26.88;;;24.58;;
52210;SDS011;38179;52.756;6.906;2022-09-12T13:14:56;28.35;;;25.80;;
52210;SDS011;38179;52.756;6.906;2022-09-12T13:17:28;27.30;;;25.00;;
52210;SDS011;38179;52.756;6.906;2022-09-12T13:20:27;28.70;;;26.20;;
52210;SDS011;38179;52.756;6.906;2022-09-12T13:22:57;28.02;;;25.52;;
52210;SDS011;38179;52.756;6.906;2022-09-12T13:33:28;28.65;;;26.30;;
52210;SDS011;38179;52.756;6.906;2022-09-12T13:36:10;28.35;;;26.15;;
52210;SDS011;38179;52.756;6.906;2022-09-12T13:45:03;28.00;;;25.73;;
52210;SDS011;38179;52.756;6.906;2022-09-12T13:47:49;29.20;;;26.73;;
52210;SDS011;38179;52.756;6.906;2022-09-12T13:50:20;28.77;;;26.48;;
52210;SDS011;38179;52.756;6.906;2022-09-12T13:52:52;26.65;;;24.55;;
52210;SDS011;38179;52.756;6.906;2022-09-12T13:55:42;27.23;;;25.13;;
52210;SDS011;38179;52.756;6.906;2022-09-12T13:58:31;25.67;;;23.63;;
52210;SDS011;38179;52.756;6.906;2022-09-12T14:03:41;25.45;;;23.55;;
52210;SDS011;38179;52.756;6.906;2022-09-12T14:12:28;25.83;;;23.73;;
52210;SDS011;38179;52.756;6.906;2022-09-12T14:15:01;25.20;;;23.20;;
52210;SDS011;38179;52.756;6.906;2022-09-12T14:19:59;26.23;;;24.23;;
52210;SDS011;38179;52.756;6.906;2022-09-12T14:22:29;26.38;;;23.98;;
52210;SDS011;38179;52.756;6.906;2022-09-12T14:24:56;25.95;;;23.95;;
52210;SDS011;38179;52.756;6.906;2022-09-12T14:27:25;25.15;;;23.15;;
52210;SDS011;38179;52.756;6.906;2022-09-12T14:30:24;25.23;;;23.23;;
52210;SDS011;38179;52.756;6.906;2022-09-12T14:35:50;25.00;;;22.90;;
52210;SDS011;38179;52.756;6.906;2022-09-12T14:38:35;25.50;;;23.45;;
52210;SDS011;38179;52.756;6.906;2022-09-12T14:41:06;25.25;;;23.35;;
52210;SDS011;38179;52.756;6.906;2022-09-12T14:43:35;25.13;;;23.23;;
52210;SDS011;38179;52.756;6.906;2022-09-12T14:46:04;25.33;;;23.42;;
52210;SDS011;38179;52.756;6.906;2022-09-12T14:48:36;25.52;;;23.17;;
52210;SDS011;38179;52.756;6.906;2022-09-12T14:51:07;25.23;;;23.33;;
52210;SDS011;38179;52.756;6.906;2022-09-12T14:53:46;24.42;;;22.52;;
52210;SDS011;38179;52.756;6.906;2022-09-12T14:56:14;25.13;;;23.23;;
52210;SDS011;38179;52.756;6.906;2022-09-12T14:58:40;24.55;;;22.75;;
52210;SDS011;38179;52.756;6.906;2022-09-12T15:06:21;24.25;;;22.38;;
52210;SDS011;38179;52.756;6.906;2022-09-12T15:09:07;23.95;;;22.25;;
52210;SDS011;38179;52.756;6.906;2022-09-12T15:11:37;23.88;;;22.13;;
52210;SDS011;38179;52.756;6.906;2022-09-12T15:14:12;23.52;;;21.83;;
52210;SDS011;38179;52.756;6.906;2022-09-12T15:16:39;24.75;;;22.95;;
52210;SDS011;38179;52.756;6.906;2022-09-12T15:19:05;24.10;;;22.35;;
52210;SDS011;38179;52.756;6.906;2022-09-12T15:21:31;24.05;;;22.25;;
52210;SDS011;38179;52.756;6.906;2022-09-12T15:23:57;24.00;;;22.20;;
52210;SDS011;38179;52.756;6.906;2022-09-12T15:26:24;24.00;;;22.20;;
52210;SDS011;38179;52.756;6.906;2022-09-12T15:28:54;24.58;;;22.75;;
52210;SDS011;38179;52.756;6.906;2022-09-12T15:33:53;24.50;;;22.70;;
52210;SDS011;38179;52.756;6.906;2022-09-12T15:36:20;24.02;;;22.33;;
52210;SDS011;38179;52.756;6.906;2022-09-12T15:38:47;23.77;;;21.88;;
52210;SDS011;38179;52.756;6.906;2022-09-12T15:41:15;24.05;;;22.25;;
52210;SDS011;38179;52.756;6.906;2022-09-12T15:43:53;23.52;;;21.88;;
52210;SDS011;38179;52.756;6.906;2022-09-12T15:46:19;24.75;;;22.35;;
52210;SDS011;38179;52.756;6.906;2022-09-12T15:48:45;23.55;;;21.85;;
52210;SDS011;38179;52.756;6.906;2022-09-12T15:51:12;24.20;;;22.50;;
52210;SDS011;38179;52.756;6.906;2022-09-12T15:53:39;24.03;;;22.33;;
52210;SDS011;38179;52.756;6.906;2022-09-12T15:56:05;23.95;;;22.10;;
52210;SDS011;38179;52.756;6.906;2022-09-12T15:58:31;24.20;;;22.40;;
52210;SDS011;38179;52.756;6.906;2022-09-12T16:00:57;24.73;;;22.92;;
52210;SDS011;38179;52.756;6.906;2022-09-12T16:03:24;23.83;;;22.02;;
52210;SDS011;38179;52.756;6.906;2022-09-12T16:05:56;24.45;;;22.55;;
52210;SDS011;38179;52.756;6.906;2022-09-12T16:08:23;24.65;;;22.83;;
52210;SDS011;38179;52.756;6.906;2022-09-12T16:10:54;25.10;;;22.95;;
52210;SDS011;38179;52.756;6.906;2022-09-12T16:13:22;23.65;;;21.88;;
52210;SDS011;38179;52.756;6.906;2022-09-12T16:15:49;24.40;;;22.42;;
52210;SDS011;38179;52.756;6.906;2022-09-12T16:18:15;23.63;;;21.92;;
52210;SDS011;38179;52.756;6.906;2022-09-12T16:20:41;24.55;;;22.55;;
52210;SDS011;38179;52.756;6.906;2022-09-12T16:23:10;24.45;;;22.65;;
52210;SDS011;38179;52.756;6.906;2022-09-12T16:25:38;24.08;;;22.23;;
52210;SDS011;38179;52.756;6.906;2022-09-12T16:28:04;24.27;;;22.50;;
52210;SDS011;38179;52.756;6.906;2022-09-12T16:30:34;23.90;;;22.20;;
52210;SDS011;38179;52.756;6.906;2022-09-12T16:33:00;23.65;;;21.85;;
52210;SDS011;38179;52.756;6.906;2022-09-12T16:35:26;23.20;;;21.50;;
52210;SDS011;38179;52.756;6.906;2022-09-12T16:37:52;23.88;;;22.17;;
52210;SDS011;38179;52.756;6.906;2022-09-12T16:40:19;23.95;;;21.95;;
52210;SDS011;38179;52.756;6.906;2022-09-12T16:42:45;24.10;;;22.30;;
52210;SDS011;38179;52.756;6.906;2022-09-12T16:45:11;24.60;;;22.75;;
52210;SDS011;38179;52.756;6.906;2022-09-12T16:47:38;23.92;;;22.15;;
52210;SDS011;38179;52.756;6.906;2022-09-12T16:50:04;24.00;;;22.13;;
52210;SDS011;38179;52.756;6.906;2022-09-12T16:52:32;26.17;;;24.17;;
52210;SDS011;38179;52.756;6.906;2022-09-12T16:55:01;23.85;;;22.10;;
52210;SDS011;38179;52.756;6.906;2022-09-12T16:57:29;24.52;;;22.52;;
52210;SDS011;38179;52.756;6.906;2022-09-12T16:59:55;25.77;;;23.45;;
52210;SDS011;38179;52.756;6.906;2022-09-12T17:02:21;24.80;;;22.77;;
52210;SDS011;38179;52.756;6.906;2022-09-12T17:04:46;24.35;;;22.30;;
52210;SDS011;38179;52.756;6.906;2022-09-12T17:07:13;24.08;;;22.23;;
52210;SDS011;38179;52.756;6.906;2022-09-12T17:09:38;25.42;;;23.33;;
52210;SDS011;38179;52.756;6.906;2022-09-12T17:12:04;25.05;;;23.05;;
52210;SDS011;38179;52.756;6.906;2022-09-12T17:14:30;24.83;;;22.83;;
52210;SDS011;38179;52.756;6.906;2022-09-12T17:16:56;24.63;;;22.73;;
52210;SDS011;38179;52.756;6.906;2022-09-12T17:19:24;24.40;;;22.35;;
52210;SDS011;38179;52.756;6.906;2022-09-12T17:21:53;25.05;;;23.02;;